This is the latest recevied weather packets stored in our database for station/object IR1ZYZ-3. If no packets are shown the sender has not sent any weather packets the latest 10 day(s).
| Time | Temp. | Humidity | Pressure | Rain* | Wind** | Luminosity | Snow |
|---|---|---|---|---|---|---|---|
| 1788011551 | 32.22° C | 46% | 1013.5 hPa | - | - | - | - |
| 1788010945 | 30° C | 51% | 1013.9 hPa | - | - | - | - |
| 1788010340 | 30.56° C | 51% | 1014 hPa | - | - | - | - |
| 1788009734 | 28.89° C | 46% | 1014.1 hPa | - | - | - | - |
| 1788009163 | 30.56° C | 41% | 1014.1 hPa | - | - | - | - |
| 1788009129 | 30.56° C | 41% | 1014.1 hPa | - | - | - | - |
| 1788008524 | 31.11° C | 48% | 1014.1 hPa | - | - | - | - |
| 1788007919 | 31.11° C | 49% | 1014.2 hPa | - | - | - | - |
| 1788007314 | 31.11° C | 49% | 1014.2 hPa | - | - | - | - |
| 1788006708 | 31.67° C | 48% | 1014.2 hPa | - | - | - | - |
| 1788006103 | 31.11° C | 48% | 1014.3 hPa | - | - | - | - |
| 1788005497 | 31.11° C | 46% | 1014.3 hPa | - | - | - | - |
| 1788004892 | 30.56° C | 47% | 1014.5 hPa | - | - | - | - |
| 1788004287 | 31.11° C | 48% | 1014.5 hPa | - | - | - | - |
| 1788003681 | 31.11° C | 49% | 1014.5 hPa | - | - | - | - |
| 1788003076 | 30.56° C | 49% | 1014.6 hPa | - | - | - | - |
| 1788003076 | 30.56° C | 49% | - | - | - | - | - |
| 1788002471 | 33.89° C | 45% | 1014.3 hPa | - | - | - | - |
| 1788001865 | 33.89° C | 43% | 1014.5 hPa | - | - | - | - |
| 1788001259 | 31.11° C | 49% | 1014.7 hPa | - | - | - | - |
| 1788000653 | 33.33° C | 46% | 1014.6 hPa | - | - | - | - |
| 1788000048 | 32.78° C | 45% | 1014.7 hPa | - | - | - | - |
| 1787999442 | 32.78° C | 42% | 1014.6 hPa | - | - | - | - |
| 1787998836 | 33.89° C | 40% | 1014.5 hPa | - | - | - | - |
| 1787998231 | 31.67° C | 44% | 1014.9 hPa | - | - | - | - |
* Rain since midnight (hover to see other rain measurements)
** Current wind speed in m/s (hover to see current wind gust speed)